createdAt,value
2023-03-14T00:01:25.395Z,96302.88
2023-03-14T00:03:52.259Z,96290.91
2023-03-14T00:06:19.435Z,96304.63
2023-03-14T00:08:46.040Z,96293.44
2023-03-14T00:11:14.322Z,96286.19
2023-03-14T00:13:41.123Z,96300.25
2023-03-14T00:16:09.005Z,96289.84
2023-03-14T00:18:35.552Z,96301.94
2023-03-14T00:21:03.093Z,96287.19
2023-03-14T00:23:30.617Z,96267.69
2023-03-14T00:26:05.264Z,96284.28
2023-03-14T00:28:31.763Z,96274.47
2023-03-14T00:30:59.661Z,96261.13
2023-03-14T00:33:26.391Z,96257.97
2023-03-14T00:35:55.514Z,96250.53
2023-03-14T00:38:22.265Z,96257.97
2023-03-14T00:40:48.751Z,96247.91
2023-03-14T00:43:16.599Z,96259.38
2023-03-14T00:45:43.044Z,96262.13
2023-03-14T00:48:09.576Z,96258.72
2023-03-14T00:50:36.732Z,96257.63
2023-03-14T00:53:03.182Z,96233.94
2023-03-14T00:55:29.785Z,96259.47
2023-03-14T00:57:56.307Z,96230.19
2023-03-14T01:00:22.859Z,96231.94
2023-03-14T01:02:49.634Z,96207.56
2023-03-14T01:05:16.875Z,96219.50
2023-03-14T01:07:43.353Z,96205.97
2023-03-14T01:10:10.361Z,96196.25
2023-03-14T01:12:37.456Z,96190.56
2023-03-14T01:15:04.185Z,96196.69
2023-03-14T01:17:30.688Z,96183.75
2023-03-14T01:19:57.543Z,96163.03
2023-03-14T01:22:24.123Z,96145.03
2023-03-14T01:24:50.568Z,96145.53
2023-03-14T01:27:17.108Z,96166.25
2023-03-14T01:29:43.913Z,96144.31
2023-03-14T01:32:10.505Z,96142.09
2023-03-14T01:34:37.059Z,96130.03
2023-03-14T01:37:03.518Z,96135.91
2023-03-14T01:39:31.160Z,96133.91
2023-03-14T01:41:57.742Z,96135.91
2023-03-14T01:44:24.203Z,96130.22
2023-03-14T01:46:50.707Z,96124.75
2023-03-14T01:49:20.781Z,96118.22
2023-03-14T01:52:03.135Z,96121.41
2023-03-14T01:54:34.259Z,96113.38
2023-03-14T01:57:05.871Z,96116.22
2023-03-14T01:59:33.870Z,96113.22
2023-03-14T02:02:00.723Z,96116.22
2023-03-14T02:04:34.064Z,96113.09
2023-03-14T02:07:21.065Z,96129.53
2023-03-14T02:10:10.764Z,96106.88
2023-03-14T02:12:37.507Z,96119.53
2023-03-14T02:15:10.056Z,96113.13
2023-03-14T02:18:03.785Z,96106.50
2023-03-14T02:20:54.313Z,96099.03
2023-03-14T02:23:28.324Z,96099.47
2023-03-14T02:25:58.938Z,96099.88
2023-03-14T02:28:25.965Z,96107.22
2023-03-14T02:30:56.412Z,96088.50
2023-03-14T02:33:23.690Z,96083.88
2023-03-14T02:35:58.532Z,96068.47
2023-03-14T02:38:32.265Z,96092.03
2023-03-14T02:41:00.788Z,96082.31
2023-03-14T02:43:29.044Z,96085.81
2023-03-14T02:46:01.942Z,96079.16
2023-03-14T02:48:32.005Z,96081.44
2023-03-14T02:50:59.962Z,96068.63
2023-03-14T02:53:32.338Z,96080.84
2023-03-14T02:56:02.521Z,96064.84
2023-03-14T02:58:30.453Z,96070.69
2023-03-14T03:01:06.670Z,96079.19
2023-03-14T03:03:33.248Z,96071.81
2023-03-14T03:05:59.906Z,96070.69
2023-03-14T03:08:27.407Z,96066.88
2023-03-14T03:10:54.653Z,96068.88
2023-03-14T03:13:21.178Z,96076.88
2023-03-14T03:15:52.125Z,96081.16
2023-03-14T03:18:19.223Z,96075.41
2023-03-14T03:20:46.627Z,96068.19
2023-03-14T03:23:13.381Z,96054.31
2023-03-14T03:25:39.835Z,96063.88
2023-03-14T03:28:08.788Z,96092.25
2023-03-14T03:30:38.961Z,96073.72
2023-03-14T03:33:05.833Z,96076.91
2023-03-14T03:35:32.441Z,96081.75
2023-03-14T03:37:59.959Z,96067.72
2023-03-14T03:40:27.491Z,96074.22
2023-03-14T03:42:53.942Z,96099.25
2023-03-14T03:45:20.939Z,96097.47
2023-03-14T03:47:52.432Z,96107.00
2023-03-14T03:50:18.893Z,96108.50
2023-03-14T03:52:45.388Z,96100.97
2023-03-14T03:55:11.902Z,96093.44
2023-03-14T03:57:38.416Z,96105.50
2023-03-14T04:00:06.749Z,96114.53
2023-03-14T04:02:40.899Z,96123.22
2023-03-14T04:05:10.077Z,96117.22
2023-03-14T04:07:38.894Z,96103.69
2023-03-14T04:10:06.654Z,96106.00
2023-03-14T04:12:36.925Z,96117.69
2023-03-14T04:15:10.458Z,96115.38
2023-03-14T04:17:39.998Z,96111.84
2023-03-14T04:20:11.569Z,96100.31
2023-03-14T04:22:38.615Z,96108.00
2023-03-14T04:25:05.704Z,96119.38
2023-03-14T04:27:36.301Z,96122.38
2023-03-14T04:30:06.553Z,96123.72
2023-03-14T04:32:51.016Z,96122.69
2023-03-14T04:35:18.736Z,96107.59
2023-03-14T04:37:45.329Z,96108.84
2023-03-14T04:40:16.322Z,96115.38
2023-03-14T04:42:43.978Z,96091.41
2023-03-14T04:45:11.122Z,96106.50
2023-03-14T04:47:39.673Z,96103.69
2023-03-14T04:50:07.493Z,96099.78
2023-03-14T04:52:34.187Z,96098.13
2023-03-14T04:55:01.289Z,96106.22
2023-03-14T04:57:27.945Z,96120.63
2023-03-14T04:59:55.329Z,96111.50
2023-03-14T05:02:40.016Z,96102.78
2023-03-14T05:05:15.402Z,96101.47
2023-03-14T05:07:58.278Z,96079.59
2023-03-14T05:11:03.878Z,96093.25
2023-03-14T05:13:53.246Z,96095.13
2023-03-14T05:16:54.899Z,96099.69
2023-03-14T05:19:35.790Z,96098.63
2023-03-14T05:22:21.096Z,96086.97
2023-03-14T05:25:00.613Z,96099.75
2023-03-14T05:27:27.109Z,96097.41
2023-03-14T05:30:07.990Z,96092.34
2023-03-14T05:33:06.705Z,96075.41
2023-03-14T05:35:43.081Z,96079.53
2023-03-14T05:38:32.847Z,96070.75
2023-03-14T05:41:19.304Z,96065.31
2023-03-14T05:44:06.019Z,96069.22
2023-03-14T05:46:40.596Z,96068.19
2023-03-14T05:49:33.169Z,96064.44
2023-03-14T05:52:08.588Z,96073.53
2023-03-14T05:55:10.525Z,96077.56
2023-03-14T05:57:59.028Z,96063.72
2023-03-14T06:00:44.236Z,96047.50
2023-03-14T06:03:30.781Z,96066.59
2023-03-14T06:05:57.871Z,96059.53
2023-03-14T06:08:25.614Z,96063.84
2023-03-14T06:10:52.539Z,96031.13
2023-03-14T06:13:21.598Z,96029.06
2023-03-14T06:15:48.060Z,96037.75
2023-03-14T06:18:15.142Z,96053.31
2023-03-14T06:20:42.704Z,96068.69
2023-03-14T06:23:12.322Z,96064.88
2023-03-14T06:25:38.908Z,96046.72
2023-03-14T06:28:05.458Z,96057.41
2023-03-14T06:30:32.065Z,96045.81
2023-03-14T06:32:58.820Z,96044.97
2023-03-14T06:35:26.020Z,96048.47
2023-03-14T06:37:53.540Z,96045.66
2023-03-14T06:40:20.078Z,96055.34
2023-03-14T06:42:54.048Z,96056.84
2023-03-14T06:45:22.249Z,96054.91
2023-03-14T06:47:48.924Z,96063.47
2023-03-14T06:50:17.145Z,96063.28
2023-03-14T06:52:48.961Z,96055.13
2023-03-14T06:55:22.148Z,96053.44
2023-03-14T06:57:49.553Z,96044.34
2023-03-14T07:00:16.286Z,96028.06
2023-03-14T07:02:43.608Z,96022.81
2023-03-14T07:05:22.090Z,96019.78
2023-03-14T07:07:48.589Z,96018.75
2023-03-14T07:10:15.627Z,96021.66
2023-03-14T07:12:42.080Z,96016.06
2023-03-14T07:17:59.607Z,96022.75
2023-03-14T07:20:27.238Z,96026.75
2023-03-14T07:22:53.767Z,96036.66
2023-03-14T07:25:30.770Z,96046.56
2023-03-14T07:27:57.403Z,96033.69
2023-03-14T07:30:23.979Z,96044.16
2023-03-14T07:32:52.197Z,96042.22
2023-03-14T07:35:21.842Z,96026.88
2023-03-14T07:37:48.530Z,96021.66
2023-03-14T07:40:17.636Z,96027.44
2023-03-14T07:42:44.494Z,96020.59
2023-03-14T07:45:25.917Z,96005.72
2023-03-14T07:47:52.384Z,96000.25
2023-03-14T07:50:20.177Z,95979.19
2023-03-14T07:52:46.694Z,95994.19
2023-03-14T07:55:14.571Z,95976.03
2023-03-14T07:57:41.013Z,95995.84
2023-03-14T08:00:08.446Z,95996.19
2023-03-14T08:02:39.645Z,95968.63
2023-03-14T08:05:06.463Z,95959.13
2023-03-14T08:07:32.905Z,95971.59
2023-03-14T08:09:59.356Z,95968.78
2023-03-14T08:12:25.881Z,95957.78
2023-03-14T08:14:52.807Z,95943.22
2023-03-14T08:17:19.373Z,95949.34
2023-03-14T08:19:45.852Z,95937.47
2023-03-14T08:22:12.264Z,95935.97
2023-03-14T08:24:38.765Z,95926.34
2023-03-14T08:27:05.318Z,95936.31
2023-03-14T08:29:31.844Z,95940.31
2023-03-14T08:31:58.325Z,95943.53
2023-03-14T08:34:24.900Z,95932.78
2023-03-14T08:36:51.388Z,95933.78
2023-03-14T08:39:17.924Z,95927.94
2023-03-14T08:41:45.451Z,95929.66
2023-03-14T08:44:16.740Z,95919.31
2023-03-14T08:46:45.504Z,95930.44
2023-03-14T08:49:12.026Z,95913.13
2023-03-14T08:51:38.447Z,95911.81
2023-03-14T08:54:04.973Z,95925.97
2023-03-14T08:56:31.432Z,95933.84
2023-03-14T08:58:58.242Z,95944.19
2023-03-14T09:01:26.275Z,95949.06
2023-03-14T09:03:52.882Z,95937.41
2023-03-14T09:06:19.350Z,95939.16
2023-03-14T09:08:46.501Z,95944.38
2023-03-14T09:11:13.492Z,95926.88
2023-03-14T09:13:40.265Z,95915.59
2023-03-14T09:16:07.284Z,95929.09
2023-03-14T09:18:33.780Z,95922.44
2023-03-14T09:21:00.241Z,95923.19
2023-03-14T09:23:26.749Z,95931.66
2023-03-14T09:25:56.915Z,95921.66
2023-03-14T09:28:23.409Z,95917.84
2023-03-14T09:30:50.607Z,95927.81
2023-03-14T09:33:17.688Z,95924.28
2023-03-14T09:35:44.139Z,95929.13
2023-03-14T09:38:10.633Z,95931.22
2023-03-14T09:40:38.419Z,95923.03
2023-03-14T09:43:05.467Z,95924.88
2023-03-14T09:45:37.301Z,95923.84
2023-03-14T09:48:04.562Z,95924.41
2023-03-14T09:50:34.695Z,95916.72
2023-03-14T09:53:03.921Z,95906.22
2023-03-14T09:55:30.409Z,95911.94
2023-03-14T09:58:02.964Z,95909.47
2023-03-14T10:00:31.481Z,95910.63
2023-03-14T10:03:20.991Z,95919.72
2023-03-14T10:05:47.465Z,95926.09
2023-03-14T10:08:14.715Z,95926.16
2023-03-14T10:10:41.471Z,95921.78
2023-03-14T10:13:07.904Z,95909.69
2023-03-14T10:15:35.139Z,95909.84
2023-03-14T10:18:03.088Z,95911.63
2023-03-14T10:20:34.720Z,95907.44
2023-03-14T10:23:07.905Z,95898.28
2023-03-14T10:25:35.716Z,95879.66
2023-03-14T10:28:03.060Z,95868.75
2023-03-14T10:30:45.273Z,95885.09
2023-03-14T10:33:44.209Z,95913.25
2023-03-14T10:36:20.413Z,95905.47
2023-03-14T10:38:46.956Z,95894.50
2023-03-14T10:41:27.316Z,95901.47
2023-03-14T10:44:00.682Z,95891.56
2023-03-14T10:46:30.679Z,95873.25
2023-03-14T10:49:26.455Z,95876.06
2023-03-14T10:51:52.918Z,95889.22
2023-03-14T10:54:24.716Z,95908.47
2023-03-14T10:57:01.629Z,95908.78
2023-03-14T10:59:30.121Z,95906.31
2023-03-14T11:01:59.632Z,95907.13
2023-03-14T11:04:50.480Z,95915.03
2023-03-14T11:07:55.636Z,95907.47
2023-03-14T11:10:35.689Z,95911.47
2023-03-14T11:13:20.733Z,95929.03
2023-03-14T11:16:05.802Z,95922.50
2023-03-14T11:19:01.389Z,95926.38
2023-03-14T11:21:42.160Z,95936.25
2023-03-14T11:24:11.419Z,95948.19
2023-03-14T11:26:37.907Z,95948.44
2023-03-14T11:29:27.663Z,95939.16
2023-03-14T11:31:56.628Z,95929.34
2023-03-14T11:34:29.100Z,95927.97
2023-03-14T11:36:58.646Z,95920.00
2023-03-14T11:39:27.242Z,95910.56
2023-03-14T11:41:54.962Z,95899.06
2023-03-14T11:44:31.148Z,95898.06
2023-03-14T11:47:01.129Z,95898.16
2023-03-14T11:49:33.626Z,95893.66
2023-03-14T11:52:02.390Z,95904.09
2023-03-14T11:54:47.858Z,95907.19
2023-03-14T11:57:18.927Z,95914.19
2023-03-14T11:59:45.443Z,95901.69
2023-03-14T12:02:34.944Z,95902.56
2023-03-14T12:05:20.425Z,95897.66
2023-03-14T12:07:47.642Z,95898.00
2023-03-14T12:10:14.263Z,95897.50
2023-03-14T12:12:40.808Z,95886.78
2023-03-14T12:15:18.840Z,95898.09
2023-03-14T12:17:46.683Z,95893.94
2023-03-14T12:20:20.399Z,95889.88
2023-03-14T12:22:54.628Z,95894.34
2023-03-14T12:25:23.264Z,95894.75
2023-03-14T12:27:55.974Z,95891.13
2023-03-14T12:30:25.885Z,95901.44
2023-03-14T12:33:10.999Z,95886.06
2023-03-14T12:35:49.018Z,95884.25
2023-03-14T12:38:15.615Z,95895.91
2023-03-14T12:41:01.000Z,95899.38
2023-03-14T12:43:29.622Z,95893.38
2023-03-14T12:46:19.518Z,95889.44
2023-03-14T12:48:47.733Z,95896.13
2023-03-14T12:51:15.435Z,95895.47
2023-03-14T12:53:48.064Z,95901.91
2023-03-14T12:56:14.583Z,95897.16
2023-03-14T12:58:50.333Z,95912.66
2023-03-14T13:01:18.368Z,95906.50
2023-03-14T13:03:46.873Z,95906.53
2023-03-14T13:06:13.690Z,95914.97
2023-03-14T13:08:40.781Z,95912.06
2023-03-14T13:11:10.086Z,95915.56
2023-03-14T13:13:37.979Z,95910.59
2023-03-14T13:16:05.520Z,95914.47
2023-03-14T13:18:37.169Z,95915.38
2023-03-14T13:21:06.330Z,95925.38
2023-03-14T13:23:34.058Z,95915.66
2023-03-14T13:26:01.143Z,95919.91
2023-03-14T13:28:28.268Z,95910.69
2023-03-14T13:30:57.144Z,95903.41
2023-03-14T13:33:24.266Z,95902.25
2023-03-14T13:35:56.245Z,95901.19
2023-03-14T13:38:24.384Z,95918.09
2023-03-14T13:40:52.030Z,95917.78
2023-03-14T13:43:18.491Z,95917.78
2023-03-14T13:46:05.501Z,95909.31
2023-03-14T13:48:33.562Z,95915.09
2023-03-14T13:51:05.707Z,95907.50
2023-03-14T13:53:32.768Z,95902.22
2023-03-14T13:56:02.239Z,95901.03
2023-03-14T13:58:30.193Z,95898.34
2023-03-14T14:00:59.754Z,95902.97
2023-03-14T14:03:26.559Z,95904.13
2023-03-14T14:05:55.325Z,95911.16
2023-03-14T14:08:21.913Z,95908.28
2023-03-14T14:10:49.098Z,95906.00
2023-03-14T14:13:19.577Z,95912.91
2023-03-14T14:15:48.438Z,95917.09
2023-03-14T14:18:17.517Z,95914.19
2023-03-14T14:20:47.254Z,95918.66
2023-03-14T14:23:16.342Z,95903.53
2023-03-14T14:25:44.214Z,95906.47
2023-03-14T14:28:16.804Z,95913.25
2023-03-14T14:30:44.796Z,95909.19
2023-03-14T14:33:21.412Z,95896.88
2023-03-14T14:35:52.799Z,95905.91
2023-03-14T14:38:21.201Z,95904.22
2023-03-14T14:40:50.466Z,95900.13
2023-03-14T14:43:19.704Z,95899.34
2023-03-14T14:45:47.837Z,95907.69
2023-03-14T14:48:14.560Z,95899.41
2023-03-14T14:50:51.056Z,95892.94
2023-03-14T14:53:53.048Z,95891.59
2023-03-14T14:56:23.293Z,95891.97
2023-03-14T14:58:50.472Z,95885.56
2023-03-14T15:01:19.768Z,95894.09
2023-03-14T15:03:47.253Z,95880.50
2023-03-14T15:06:14.550Z,95878.84
2023-03-14T15:08:41.576Z,95891.81
2023-03-14T15:11:10.455Z,95894.44
2023-03-14T15:13:36.997Z,95906.84
2023-03-14T15:16:03.538Z,95890.53
2023-03-14T15:18:31.383Z,95893.50
2023-03-14T15:20:57.879Z,95904.84
2023-03-14T15:23:25.065Z,95904.84
2023-03-14T15:25:55.930Z,95906.72
2023-03-14T15:28:27.288Z,95918.13
2023-03-14T15:30:55.148Z,95921.56
2023-03-14T15:33:22.199Z,95919.91
2023-03-14T15:35:49.384Z,95922.75
2023-03-14T15:38:17.507Z,95919.53
2023-03-14T15:40:44.071Z,95917.59
2023-03-14T15:43:10.722Z,95918.22
2023-03-14T15:45:37.236Z,95908.81
2023-03-14T15:48:04.012Z,95912.44
2023-03-14T15:50:30.640Z,95905.72
2023-03-14T15:52:57.125Z,95911.22
2023-03-14T15:55:23.828Z,95911.53
2023-03-14T15:57:50.945Z,95913.16
2023-03-14T16:00:19.383Z,95907.81
2023-03-14T16:02:46.051Z,95929.38
2023-03-14T16:05:13.609Z,95925.78
2023-03-14T16:07:40.376Z,95919.72
2023-03-14T16:10:07.623Z,95929.84
2023-03-14T16:12:34.773Z,95928.84
2023-03-14T16:15:01.313Z,95926.59
2023-03-14T16:17:27.745Z,95927.69
2023-03-14T16:19:54.197Z,95931.78
2023-03-14T16:22:20.798Z,95940.72
2023-03-14T16:24:47.336Z,95945.47
2023-03-14T16:27:13.979Z,95946.09
2023-03-14T16:29:41.837Z,95948.56
2023-03-14T16:32:08.499Z,95948.44
2023-03-14T16:34:35.086Z,95945.38
2023-03-14T16:37:01.564Z,95956.44
2023-03-14T16:39:29.371Z,95959.31
2023-03-14T16:41:59.030Z,95966.50
2023-03-14T16:44:25.831Z,95964.22
2023-03-14T16:46:52.245Z,95967.34
2023-03-14T16:49:18.680Z,95969.00
2023-03-14T16:51:45.184Z,95971.53
2023-03-14T16:54:11.715Z,95985.44
2023-03-14T16:56:38.171Z,95989.28
2023-03-14T16:59:04.617Z,95988.50
2023-03-14T17:01:31.249Z,95993.31
2023-03-14T17:03:57.851Z,95990.69
2023-03-14T17:06:26.044Z,95989.94
2023-03-14T17:08:53.406Z,96000.31
2023-03-14T17:11:19.895Z,96010.75
2023-03-14T17:13:46.411Z,96002.91
2023-03-14T17:16:13.061Z,96014.16
2023-03-14T17:18:39.596Z,96005.84
2023-03-14T17:21:06.221Z,96014.16
2023-03-14T17:23:33.406Z,96015.81
2023-03-14T17:26:00.323Z,96023.94
2023-03-14T17:28:28.046Z,96036.22
2023-03-14T17:31:22.669Z,96041.03
2023-03-14T17:33:51.793Z,96045.78
2023-03-14T17:36:18.949Z,96048.50
2023-03-14T17:38:45.380Z,96046.19
2023-03-14T17:41:13.298Z,96054.09
2023-03-14T17:43:39.809Z,96057.00
2023-03-14T17:46:11.819Z,96061.81
2023-03-14T17:48:38.606Z,96049.97
2023-03-14T17:51:05.286Z,96060.34
2023-03-14T17:53:31.821Z,96061.38
2023-03-14T17:55:58.465Z,96069.28
2023-03-14T17:58:25.417Z,96073.88
2023-03-14T18:00:51.901Z,96073.63
2023-03-14T18:03:18.352Z,96080.69
2023-03-14T18:05:44.813Z,96074.50
2023-03-14T18:08:13.168Z,96090.94
2023-03-14T18:10:39.935Z,96085.25
2023-03-14T18:13:06.457Z,96098.56
2023-03-14T18:15:33.855Z,96101.66
2023-03-14T18:18:01.956Z,96102.50
2023-03-14T18:20:29.044Z,96105.19
2023-03-14T18:22:56.005Z,96118.50
2023-03-14T18:25:22.679Z,96103.47
2023-03-14T18:27:49.109Z,96110.97
2023-03-14T18:30:15.770Z,96103.09
2023-03-14T18:32:42.342Z,96114.56
2023-03-14T18:35:08.898Z,96118.06
2023-03-14T18:37:35.433Z,96123.16
2023-03-14T18:40:01.910Z,96130.97
2023-03-14T18:42:28.428Z,96130.53
2023-03-14T18:44:54.936Z,96138.41
2023-03-14T18:47:25.632Z,96129.91
2023-03-14T18:49:52.126Z,96132.22
2023-03-14T18:52:18.636Z,96137.59
2023-03-14T18:54:45.089Z,96128.44
2023-03-14T18:57:12.560Z,96123.66
2023-03-14T18:59:39.102Z,96116.84
2023-03-14T19:02:05.628Z,96107.72
2023-03-14T19:04:32.320Z,96112.66
2023-03-14T19:06:58.769Z,96111.50
2023-03-14T19:09:25.250Z,96126.81
2023-03-14T19:11:51.679Z,96129.66
2023-03-14T19:14:20.240Z,96137.16
2023-03-14T19:16:47.207Z,96136.34
2023-03-14T19:19:13.758Z,96143.81
2023-03-14T19:21:40.238Z,96144.44
2023-03-14T19:24:06.912Z,96149.16
2023-03-14T19:26:35.243Z,96147.75
2023-03-14T19:29:01.808Z,96147.50
2023-03-14T19:31:28.361Z,96155.63
2023-03-14T19:33:54.910Z,96152.06
2023-03-14T19:36:25.748Z,96153.53
2023-03-14T19:38:52.803Z,96165.38
2023-03-14T19:41:19.945Z,96172.38
2023-03-14T19:43:46.414Z,96164.50
2023-03-14T19:46:13.039Z,96169.09
2023-03-14T19:48:39.579Z,96171.59
2023-03-14T19:51:06.227Z,96173.56
2023-03-14T19:53:32.861Z,96185.13
2023-03-14T19:55:59.305Z,96184.72
2023-03-14T19:58:25.836Z,96191.22
2023-03-14T20:00:52.421Z,96205.44
2023-03-14T20:03:18.998Z,96199.50
2023-03-14T20:05:45.573Z,96204.25
2023-03-14T20:08:12.094Z,96200.44
2023-03-14T20:10:38.712Z,96206.88
2023-03-14T20:13:15.632Z,96198.28
2023-03-14T20:15:45.860Z,96213.84
2023-03-14T20:18:12.333Z,96210.66
2023-03-14T20:20:39.725Z,96218.16
2023-03-14T20:23:06.272Z,96229.81
2023-03-14T20:25:35.509Z,96230.28
2023-03-14T20:28:02.487Z,96231.59
2023-03-14T20:30:29.023Z,96238.06
2023-03-14T20:32:55.690Z,96243.06
2023-03-14T20:35:25.209Z,96237.72
2023-03-14T20:37:52.803Z,96243.03
2023-03-14T20:40:20.244Z,96244.72
2023-03-14T20:42:47.078Z,96248.16
2023-03-14T20:45:13.510Z,96257.56
2023-03-14T20:47:40.229Z,96248.31
2023-03-14T20:50:07.149Z,96251.53
2023-03-14T20:52:33.670Z,96261.72
2023-03-14T20:55:00.240Z,96261.78
2023-03-14T20:57:26.921Z,96267.72
2023-03-14T20:59:53.418Z,96276.47
2023-03-14T21:02:20.001Z,96265.09
2023-03-14T21:04:46.605Z,96282.97
2023-03-14T21:07:13.300Z,96282.59
2023-03-14T21:09:39.744Z,96289.78
2023-03-14T21:12:06.234Z,96286.34
2023-03-14T21:14:32.748Z,96307.75
2023-03-14T21:17:00.268Z,96300.16
2023-03-14T21:19:33.067Z,96295.78
2023-03-14T21:22:04.104Z,96311.31
2023-03-14T21:24:31.002Z,96309.16
2023-03-14T21:26:57.917Z,96305.25
2023-03-14T21:29:24.594Z,96299.03
2023-03-14T21:31:51.207Z,96305.25
2023-03-14T21:34:20.908Z,96302.16
2023-03-14T21:36:48.856Z,96301.44
2023-03-14T21:39:15.904Z,96289.75
2023-03-14T21:41:42.440Z,96300.81
2023-03-14T21:44:09.051Z,96281.50
2023-03-14T21:46:37.055Z,96288.34
2023-03-14T21:49:04.012Z,96271.06
2023-03-14T21:51:31.231Z,96278.91
2023-03-14T21:53:58.015Z,96278.13
2023-03-14T21:56:26.967Z,96272.28
2023-03-14T21:58:56.801Z,96268.13
2023-03-14T22:01:23.586Z,96272.03
2023-03-14T22:03:50.154Z,96270.38
2023-03-14T22:06:16.583Z,96263.66
2023-03-14T22:08:44.835Z,96273.00
2023-03-14T22:11:11.376Z,96263.09
2023-03-14T22:13:37.934Z,96271.94
2023-03-14T22:16:04.581Z,96272.50
2023-03-14T22:18:31.441Z,96279.66
2023-03-14T22:20:58.248Z,96280.00
2023-03-14T22:23:24.823Z,96283.72
2023-03-14T22:25:51.266Z,96293.47
2023-03-14T22:28:18.768Z,96288.84
2023-03-14T22:30:52.076Z,96295.47
2023-03-14T22:33:19.086Z,96290.34
2023-03-14T22:35:49.431Z,96293.13
2023-03-14T22:38:16.030Z,96293.31
2023-03-14T22:40:42.554Z,96291.94
2023-03-14T22:43:09.421Z,96288.19
2023-03-14T22:45:35.907Z,96293.97
2023-03-14T22:48:02.395Z,96296.91
2023-03-14T22:50:28.853Z,96294.63
2023-03-14T22:52:58.214Z,96297.84
2023-03-14T22:55:24.820Z,96297.09
2023-03-14T22:57:52.518Z,96300.28
2023-03-14T23:00:19.497Z,96298.59
2023-03-14T23:02:54.409Z,96302.69
2023-03-14T23:05:21.476Z,96300.19
2023-03-14T23:07:48.130Z,96297.00
2023-03-14T23:10:14.663Z,96305.66
2023-03-14T23:12:41.144Z,96302.97
2023-03-14T23:15:08.400Z,96301.38
2023-03-14T23:17:35.343Z,96302.22
2023-03-14T23:20:01.952Z,96297.19
2023-03-14T23:22:32.681Z,96304.34
2023-03-14T23:25:00.035Z,96303.16
2023-03-14T23:27:27.224Z,96304.47
2023-03-14T23:29:53.675Z,96310.78
2023-03-14T23:32:20.501Z,96317.00
2023-03-14T23:34:47.083Z,96325.53
2023-03-14T23:37:14.059Z,96321.78
2023-03-14T23:39:41.448Z,96321.78
2023-03-14T23:42:07.959Z,96324.94
2023-03-14T23:44:34.675Z,96324.94
2023-03-14T23:47:01.120Z,96334.41
2023-03-14T23:49:27.722Z,96338.28
2023-03-14T23:51:54.162Z,96332.28
2023-03-14T23:54:20.680Z,96336.00
2023-03-14T23:56:47.092Z,96330.75
2023-03-14T23:59:13.521Z,96345.56
